createdAt,value
2022-08-03T00:05:09.665Z,21.1
2022-08-03T00:25:10.568Z,20.9
2022-08-03T00:35:13.498Z,20.9
2022-08-03T00:45:18.318Z,20.9
2022-08-03T00:55:11.525Z,20.8
2022-08-03T01:05:11.927Z,20.7
2022-08-03T01:15:12.501Z,20.7
2022-08-03T01:25:12.662Z,20.6
2022-08-03T01:35:13.118Z,20.6
2022-08-03T01:45:13.639Z,20.5
2022-08-03T01:55:13.921Z,20.5
2022-08-03T02:05:14.202Z,20.4
2022-08-03T02:15:15.167Z,20.3
2022-08-03T02:25:15.687Z,20.2
2022-08-03T02:45:16.597Z,19.9
2022-08-03T02:55:16.821Z,19.6
2022-08-03T03:25:18.013Z,18.9
2022-08-03T03:35:18.664Z,18.7
2022-08-03T03:45:19.439Z,18.7
2022-08-03T03:55:19.863Z,18.7
2022-08-03T04:05:20.587Z,18.6
2022-08-03T04:15:28.558Z,18.7
2022-08-03T04:25:22.071Z,18.7
2022-08-03T04:35:22.466Z,18.9
2022-08-03T04:45:23.147Z,19
2022-08-03T04:55:23.433Z,19
2022-08-03T05:05:24.230Z,19.6
2022-08-03T05:15:24.608Z,21.7
2022-08-03T05:35:56.298Z,22.4
2022-08-03T05:45:28.339Z,22.8
2022-08-03T05:55:26.727Z,23.6
2022-08-03T06:05:27.232Z,24.1
2022-08-03T06:15:27.873Z,24.8
2022-08-03T06:25:28.830Z,24.9
2022-08-03T06:35:29.209Z,25.2
2022-08-03T06:45:31.952Z,25.2
2022-08-03T06:55:29.983Z,26.1
2022-08-03T07:05:30.726Z,26.1
2022-08-03T07:15:38.489Z,26.6
2022-08-03T07:25:32.206Z,26.4
2022-08-03T07:35:32.879Z,26.4
2022-08-03T07:45:33.478Z,26
2022-08-03T07:55:34.116Z,27.1
2022-08-03T08:05:34.616Z,27.5
2022-08-03T08:15:35.329Z,28.4
2022-08-03T08:25:35.377Z,28.4
2022-08-03T08:35:35.552Z,28.1
2022-08-03T08:45:36.299Z,28.2
2022-08-03T08:55:58.126Z,28.7
2022-08-03T09:05:55.282Z,29.1
2022-08-03T09:15:37.236Z,30
2022-08-03T09:25:37.328Z,29.6
2022-08-03T09:35:53.456Z,29.4
2022-08-03T09:35:54.926Z,29.4
2022-08-03T09:56:30.992Z,29.6
2022-08-03T10:05:43.903Z,29.8
2022-08-03T10:16:20.919Z,30
2022-08-03T10:25:45.841Z,29.6
2022-08-03T10:35:46.555Z,30.1
2022-08-03T10:45:46.872Z,30.4
2022-08-03T10:55:47.946Z,30.5
2022-08-03T11:05:48.749Z,30.5
2022-08-03T11:15:49.152Z,30.7
2022-08-03T11:25:54.458Z,31.1
2022-08-03T11:35:51.063Z,31.7
2022-08-03T11:45:51.594Z,31.3
2022-08-03T11:55:52.536Z,31.9
2022-08-03T12:05:53.273Z,32
2022-08-03T12:15:53.492Z,32.1
2022-08-03T12:25:54.345Z,32
2022-08-03T12:35:54.484Z,32.2
2022-08-03T12:45:54.988Z,32.8
2022-08-03T12:55:56.752Z,32.5
2022-08-03T13:05:55.724Z,32.5
2022-08-03T13:15:56.369Z,32.9
2022-08-03T13:25:56.696Z,32.8
2022-08-03T13:35:57.044Z,33.3
2022-08-03T13:45:57.798Z,33.2
2022-08-03T13:55:58.277Z,33.6
2022-08-03T14:05:58.596Z,33.1
2022-08-03T14:15:59.424Z,33.8
2022-08-03T14:26:00.236Z,33.4
2022-08-03T14:36:00.593Z,34.1
2022-08-03T14:46:00.967Z,33
2022-08-03T14:56:03.298Z,33.9
2022-08-03T15:06:01.932Z,33.3
2022-08-03T15:16:02.788Z,33
2022-08-03T15:26:30.126Z,33.6
2022-08-03T15:36:03.960Z,34.3
2022-08-03T15:46:29.018Z,33.7
2022-08-03T15:56:09.786Z,33
2022-08-03T16:06:04.695Z,33.5
2022-08-03T16:16:05.348Z,33.3
2022-08-03T16:26:08.984Z,31.9
2022-08-03T16:36:06.515Z,33.1
2022-08-03T16:46:07.527Z,32.4
2022-08-03T16:56:10.042Z,31.8
2022-08-03T17:06:08.381Z,31.2
2022-08-03T17:16:08.452Z,31.3
2022-08-03T17:26:12.618Z,31.2
2022-08-03T17:56:36.192Z,30.8
2022-08-03T18:16:11.620Z,30.3
2022-08-03T18:26:12.660Z,29.9
2022-08-03T18:56:14.009Z,28.3
2022-08-03T19:16:15.408Z,27.6
2022-08-03T19:26:30.769Z,27
2022-08-03T19:36:16.407Z,26.7
2022-08-03T19:56:17.785Z,26.1
2022-08-03T20:16:18.872Z,25.1
2022-08-03T20:26:19.727Z,24.9
2022-08-03T20:36:20.031Z,24.8
2022-08-03T20:46:28.360Z,24.6
2022-08-03T20:56:20.565Z,24.4
2022-08-03T21:06:27.576Z,24.3
2022-08-03T21:16:21.237Z,24.2
2022-08-03T21:26:21.600Z,23.9
2022-08-03T21:36:21.939Z,23.8
2022-08-03T21:46:22.463Z,23.8
2022-08-03T21:56:23.074Z,23.6
2022-08-03T22:06:23.775Z,23.5
2022-08-03T22:16:23.982Z,23.4
2022-08-03T22:26:32.159Z,23.1
2022-08-03T22:36:24.914Z,23
2022-08-03T22:56:25.765Z,22.5
2022-08-03T23:16:27.979Z,22.1
2022-08-03T23:26:27.292Z,21.9
2022-08-03T23:46:27.644Z,21.7
2022-08-03T23:56:27.750Z,21.5
